createdAt,value
2023-03-10T00:01:58.895Z,100.00
2023-03-10T00:04:31.248Z,100.00
2023-03-10T00:07:03.393Z,100.00
2023-03-10T00:09:35.761Z,100.00
2023-03-10T00:12:09.598Z,100.00
2023-03-10T00:14:42.023Z,100.00
2023-03-10T00:17:14.111Z,100.00
2023-03-10T00:19:46.467Z,100.00
2023-03-10T00:22:18.597Z,100.00
2023-03-10T00:24:51.028Z,100.00
2023-03-10T00:27:23.084Z,100.00
2023-03-10T00:29:55.998Z,100.00
2023-03-10T00:32:28.377Z,100.00
2023-03-10T00:35:00.653Z,100.00
2023-03-10T00:37:32.672Z,100.00
2023-03-10T00:40:06.832Z,100.00
2023-03-10T00:42:39.644Z,100.00
2023-03-10T00:45:13.268Z,100.00
2023-03-10T00:47:47.190Z,100.00
2023-03-10T00:50:19.830Z,100.00
2023-03-10T00:52:52.436Z,100.00
2023-03-10T00:55:24.718Z,100.00
2023-03-10T00:57:57.103Z,100.00
2023-03-10T01:00:29.726Z,100.00
2023-03-10T01:03:03.072Z,100.00
2023-03-10T01:05:35.410Z,100.00
2023-03-10T01:08:07.886Z,100.00
2023-03-10T01:10:40.903Z,100.00
2023-03-10T01:13:13.587Z,100.00
2023-03-10T01:15:48.072Z,100.00
2023-03-10T01:18:21.685Z,100.00
2023-03-10T01:20:54.613Z,100.00
2023-03-10T01:23:28.300Z,100.00
2023-03-10T01:26:00.858Z,100.00
2023-03-10T01:28:34.266Z,100.00
2023-03-10T01:31:09.336Z,100.00
2023-03-10T01:33:43.145Z,100.00
2023-03-10T01:36:15.827Z,100.00
2023-03-10T01:38:51.220Z,100.00
2023-03-10T01:41:24.332Z,100.00
2023-03-10T01:43:57.795Z,100.00
2023-03-10T01:46:49.777Z,100.00
2023-03-10T01:49:39.868Z,100.00
2023-03-10T01:52:16.522Z,100.00
2023-03-10T01:54:52.589Z,100.00
2023-03-10T01:57:28.919Z,100.00
2023-03-10T02:00:01.900Z,100.00
2023-03-10T02:02:39.189Z,100.00
2023-03-10T02:05:12.472Z,100.00
2023-03-10T02:07:45.851Z,100.00
2023-03-10T02:10:19.331Z,100.00
2023-03-10T02:12:54.420Z,100.00
2023-03-10T02:15:27.282Z,100.00
2023-03-10T02:18:00.388Z,100.00
2023-03-10T02:20:44.052Z,100.00
2023-03-10T02:23:24.815Z,100.00
2023-03-10T02:26:02.704Z,100.00
2023-03-10T02:28:35.251Z,100.00
2023-03-10T02:31:08.524Z,100.00
2023-03-10T02:33:39.728Z,100.00
2023-03-10T02:36:23.086Z,100.00
2023-03-10T02:38:55.810Z,100.00
2023-03-10T02:41:31.974Z,100.00
2023-03-10T02:44:07.746Z,100.00
2023-03-10T02:46:40.775Z,100.00
2023-03-10T02:49:13.810Z,100.00
2023-03-10T02:51:49.120Z,100.00
2023-03-10T02:54:23.323Z,100.00
2023-03-10T02:56:55.562Z,100.00
2023-03-10T02:59:27.922Z,100.00
2023-03-10T03:02:00.027Z,100.00
2023-03-10T03:04:32.322Z,100.00
2023-03-10T03:07:04.625Z,100.00
2023-03-10T03:09:38.042Z,100.00
2023-03-10T03:12:11.438Z,100.00
2023-03-10T03:14:42.229Z,100.00
2023-03-10T03:17:14.481Z,100.00
2023-03-10T03:19:46.784Z,100.00
2023-03-10T03:22:19.269Z,100.00
2023-03-10T03:24:51.437Z,100.00
2023-03-10T03:27:23.839Z,100.00
2023-03-10T03:29:56.104Z,100.00
2023-03-10T03:32:28.432Z,100.00
2023-03-10T03:35:01.457Z,100.00
2023-03-10T03:37:33.723Z,100.00
2023-03-10T03:40:12.976Z,100.00
2023-03-10T03:42:49.059Z,100.00
2023-03-10T03:45:24.341Z,100.00
2023-03-10T03:48:00.117Z,100.00
2023-03-10T03:50:33.371Z,100.00
2023-03-10T03:53:10.343Z,100.00
2023-03-10T03:55:44.191Z,100.00
2023-03-10T03:58:16.990Z,100.00
2023-03-10T04:00:51.678Z,100.00
2023-03-10T04:03:24.608Z,100.00
2023-03-10T04:05:56.942Z,100.00
2023-03-10T04:08:29.235Z,100.00
2023-03-10T04:11:01.928Z,100.00
2023-03-10T04:13:34.801Z,100.00
2023-03-10T04:16:08.190Z,100.00
2023-03-10T04:18:42.537Z,100.00
2023-03-10T04:21:17.784Z,100.00
2023-03-10T04:23:51.170Z,100.00
2023-03-10T04:26:26.490Z,100.00
2023-03-10T04:28:59.470Z,100.00
2023-03-10T04:31:32.508Z,100.00
2023-03-10T04:34:05.825Z,100.00
2023-03-10T04:36:38.229Z,100.00
2023-03-10T04:39:11.430Z,100.00
2023-03-10T04:41:44.711Z,100.00
2023-03-10T04:44:29.729Z,100.00
2023-03-10T04:47:03.281Z,100.00
2023-03-10T04:49:35.914Z,100.00
2023-03-10T04:52:08.737Z,100.00
2023-03-10T04:54:40.982Z,100.00
2023-03-10T04:57:13.111Z,100.00
2023-03-10T04:59:46.184Z,100.00
2023-03-10T05:02:18.421Z,100.00
2023-03-10T05:04:50.471Z,100.00
2023-03-10T05:07:23.031Z,100.00
2023-03-10T05:09:56.798Z,100.00
2023-03-10T05:12:29.276Z,100.00
2023-03-10T05:15:01.400Z,100.00
2023-03-10T05:17:33.819Z,100.00
2023-03-10T05:20:08.177Z,100.00
2023-03-10T05:22:41.520Z,100.00
2023-03-10T05:25:16.990Z,100.00
2023-03-10T05:27:49.319Z,100.00
2023-03-10T05:30:22.546Z,100.00
2023-03-10T05:32:53.530Z,100.00
2023-03-10T05:35:25.817Z,100.00
2023-03-10T05:37:58.365Z,100.00
2023-03-10T05:40:30.796Z,100.00
2023-03-10T05:43:05.109Z,100.00
2023-03-10T05:45:37.261Z,100.00
2023-03-10T05:48:12.589Z,100.00
2023-03-10T05:50:44.606Z,100.00
2023-03-10T05:53:17.003Z,100.00
2023-03-10T05:55:49.270Z,100.00
2023-03-10T05:58:21.541Z,100.00
2023-03-10T06:00:54.206Z,100.00
2023-03-10T06:03:28.940Z,100.00
2023-03-10T06:06:13.776Z,100.00
2023-03-10T06:08:47.772Z,100.00
2023-03-10T06:11:20.251Z,100.00
2023-03-10T06:13:52.452Z,100.00
2023-03-10T06:16:24.900Z,100.00
2023-03-10T06:18:58.553Z,100.00
2023-03-10T06:21:29.712Z,100.00
2023-03-10T06:24:03.487Z,100.00
2023-03-10T06:26:33.940Z,100.00
2023-03-10T06:29:06.196Z,100.00
2023-03-10T06:31:38.737Z,100.00
2023-03-10T06:34:10.861Z,100.00
2023-03-10T06:36:43.673Z,100.00
2023-03-10T06:39:15.785Z,100.00
2023-03-10T06:41:47.814Z,100.00
2023-03-10T06:44:20.159Z,100.00
2023-03-10T06:46:52.503Z,100.00
2023-03-10T06:49:24.914Z,100.00
2023-03-10T06:51:57.083Z,100.00
2023-03-10T06:54:29.321Z,100.00
2023-03-10T06:57:01.670Z,100.00
2023-03-10T06:59:35.866Z,100.00
2023-03-10T07:02:09.431Z,100.00
2023-03-10T07:04:41.691Z,100.00
2023-03-10T07:07:13.867Z,100.00
2023-03-10T07:09:46.556Z,100.00
2023-03-10T07:12:18.797Z,100.00
2023-03-10T07:14:50.999Z,100.00
2023-03-10T07:17:23.780Z,100.00
2023-03-10T07:19:56.414Z,100.00
2023-03-10T07:22:28.743Z,100.00
2023-03-10T07:25:01.555Z,100.00
2023-03-10T07:27:34.927Z,100.00
2023-03-10T07:30:08.421Z,100.00
2023-03-10T07:32:39.060Z,100.00
2023-03-10T07:35:12.628Z,100.00
2023-03-10T07:37:44.970Z,100.00
2023-03-10T07:40:17.535Z,100.00
2023-03-10T07:42:49.756Z,100.00
2023-03-10T07:45:22.659Z,100.00
2023-03-10T07:47:55.839Z,100.00
2023-03-10T07:50:28.451Z,100.00
2023-03-10T07:53:01.048Z,100.00
2023-03-10T07:55:33.480Z,100.00
2023-03-10T07:58:05.761Z,100.00
2023-03-10T08:00:38.707Z,100.00
2023-03-10T08:03:11.351Z,100.00
2023-03-10T08:05:45.121Z,100.00
2023-03-10T08:08:15.438Z,100.00
2023-03-10T08:10:47.733Z,100.00
2023-03-10T08:13:20.107Z,100.00
2023-03-10T08:15:52.654Z,100.00
2023-03-10T08:18:26.484Z,100.00
2023-03-10T08:20:59.553Z,100.00
2023-03-10T08:23:32.093Z,100.00
2023-03-10T08:26:06.757Z,100.00
2023-03-10T08:28:39.340Z,100.00
2023-03-10T08:31:13.621Z,100.00
2023-03-10T08:33:47.252Z,100.00
2023-03-10T08:36:21.424Z,100.00
2023-03-10T08:38:55.780Z,100.00
2023-03-10T08:41:30.247Z,100.00
2023-03-10T08:44:02.638Z,100.00
2023-03-10T08:46:36.241Z,100.00
2023-03-10T08:49:08.908Z,100.00
2023-03-10T08:51:40.585Z,100.00
2023-03-10T08:54:18.511Z,100.00
2023-03-10T08:56:51.072Z,100.00
2023-03-10T08:59:23.900Z,100.00
2023-03-10T09:01:56.575Z,100.00
2023-03-10T09:04:28.701Z,100.00
2023-03-10T09:07:01.197Z,100.00
2023-03-10T09:09:33.470Z,100.00
2023-03-10T09:12:07.266Z,100.00
2023-03-10T09:14:39.756Z,100.00
2023-03-10T09:17:12.150Z,100.00
2023-03-10T09:19:44.322Z,99.54
2023-03-10T09:22:16.727Z,97.17
2023-03-10T09:24:49.240Z,97.53
2023-03-10T09:27:21.350Z,95.89
2023-03-10T09:29:53.499Z,96.55
2023-03-10T09:32:26.332Z,95.60
2023-03-10T09:34:58.543Z,94.51
2023-03-10T09:37:31.337Z,93.45
2023-03-10T09:40:06.390Z,95.48
2023-03-10T09:42:45.232Z,92.72
2023-03-10T09:45:28.181Z,88.37
2023-03-10T09:48:19.658Z,89.76
2023-03-10T09:50:53.832Z,86.54
2023-03-10T09:53:53.751Z,90.17
2023-03-10T09:56:31.876Z,88.50
2023-03-10T09:59:10.670Z,83.55
2023-03-10T10:01:47.118Z,84.26
2023-03-10T10:04:23.351Z,83.11
2023-03-10T10:06:55.972Z,84.95
2023-03-10T10:09:42.573Z,82.31
2023-03-10T10:12:17.819Z,81.11
2023-03-10T10:14:57.265Z,81.07
2023-03-10T10:17:52.306Z,81.31
2023-03-10T10:20:30.431Z,82.53
2023-03-10T10:23:04.941Z,79.63
2023-03-10T10:25:42.335Z,82.66
2023-03-10T10:28:26.189Z,80.36
2023-03-10T10:31:10.727Z,82.99
2023-03-10T10:33:57.766Z,79.83
2023-03-10T10:36:32.401Z,78.62
2023-03-10T10:39:06.677Z,78.99
2023-03-10T10:41:39.343Z,82.18
2023-03-10T10:44:20.474Z,82.24
2023-03-10T10:46:57.924Z,81.87
2023-03-10T10:49:34.125Z,80.40
2023-03-10T10:52:20.241Z,83.08
2023-03-10T10:54:57.818Z,78.29
2023-03-10T10:57:34.198Z,78.19
2023-03-10T11:00:28.818Z,78.16
2023-03-10T11:03:01.163Z,77.20
2023-03-10T11:05:39.185Z,77.78
2023-03-10T11:08:33.042Z,78.44
2023-03-10T11:11:14.723Z,74.80
2023-03-10T11:14:01.975Z,72.81
2023-03-10T11:16:44.070Z,72.14
2023-03-10T11:19:23.483Z,70.34
2023-03-10T11:22:00.987Z,73.59
2023-03-10T11:24:41.167Z,72.45
2023-03-10T11:27:24.104Z,72.27
2023-03-10T11:30:11.800Z,75.83
2023-03-10T11:33:01.083Z,77.35
2023-03-10T11:35:39.098Z,76.82
2023-03-10T11:38:22.687Z,75.21
2023-03-10T11:40:57.174Z,77.04
2023-03-10T11:43:39.175Z,78.55
2023-03-10T11:46:18.347Z,75.44
2023-03-10T11:48:59.724Z,77.76
2023-03-10T11:51:39.222Z,78.98
2023-03-10T11:54:21.784Z,73.44
2023-03-10T11:56:57.649Z,69.59
2023-03-10T11:59:33.659Z,71.63
2023-03-10T12:02:13.554Z,70.35
2023-03-10T12:04:51.062Z,68.54
2023-03-10T12:07:28.876Z,66.41
2023-03-10T12:10:04.297Z,66.46
2023-03-10T12:12:39.223Z,67.87
2023-03-10T12:15:20.052Z,65.61
2023-03-10T12:17:54.215Z,63.60
2023-03-10T12:20:32.800Z,65.46
2023-03-10T12:23:40.539Z,64.68
2023-03-10T12:26:13.012Z,61.46
2023-03-10T12:28:45.922Z,66.03
2023-03-10T12:31:48.354Z,63.56
2023-03-10T12:34:23.689Z,63.76
2023-03-10T12:37:03.949Z,60.53
2023-03-10T12:39:40.441Z,61.20
2023-03-10T12:42:35.506Z,59.15
2023-03-10T12:45:24.605Z,64.92
2023-03-10T12:48:05.089Z,65.75
2023-03-10T12:50:48.067Z,63.72
2023-03-10T12:53:34.459Z,63.77
2023-03-10T12:56:39.980Z,61.56
2023-03-10T12:59:19.326Z,64.51
2023-03-10T13:01:56.427Z,67.49
2023-03-10T13:04:30.181Z,65.41
2023-03-10T13:07:04.499Z,65.27
2023-03-10T13:09:43.311Z,62.61
2023-03-10T13:12:25.788Z,64.87
2023-03-10T13:15:01.680Z,62.34
2023-03-10T13:17:35.920Z,59.35
2023-03-10T13:20:13.844Z,61.85
2023-03-10T13:22:55.824Z,61.36
2023-03-10T13:25:28.787Z,62.49
2023-03-10T13:28:09.635Z,63.71
2023-03-10T13:30:42.118Z,65.13
2023-03-10T13:33:25.726Z,65.37
2023-03-10T13:35:59.021Z,63.58
2023-03-10T13:38:29.541Z,64.04
2023-03-10T13:41:06.163Z,66.55
2023-03-10T13:43:40.975Z,67.23
2023-03-10T13:46:19.093Z,64.64
2023-03-10T13:48:52.762Z,66.58
2023-03-10T13:51:26.977Z,70.03
2023-03-10T13:54:12.682Z,70.73
2023-03-10T13:56:47.747Z,72.26
2023-03-10T13:59:23.468Z,72.08
2023-03-10T14:02:14.495Z,72.73
2023-03-10T14:04:49.473Z,73.84
2023-03-10T14:07:23.276Z,76.30
2023-03-10T14:10:16.390Z,80.11
2023-03-10T14:12:50.089Z,81.07
2023-03-10T14:15:33.663Z,80.08
2023-03-10T14:18:22.198Z,81.47
2023-03-10T14:20:54.583Z,81.72
2023-03-10T14:23:37.064Z,81.68
2023-03-10T14:26:16.778Z,84.23
2023-03-10T14:28:49.298Z,81.17
2023-03-10T14:31:25.268Z,72.35
2023-03-10T14:33:57.683Z,71.19
2023-03-10T14:36:29.992Z,70.11
2023-03-10T14:39:03.537Z,68.72
2023-03-10T14:41:34.496Z,68.85
2023-03-10T14:44:05.137Z,69.76
2023-03-10T14:46:35.583Z,70.24
2023-03-10T14:49:18.122Z,68.76
2023-03-10T14:51:48.418Z,68.19
2023-03-10T14:54:19.810Z,70.00
2023-03-10T14:56:52.720Z,71.29
2023-03-10T14:59:23.016Z,69.92
2023-03-10T15:01:53.428Z,70.68
2023-03-10T15:04:23.760Z,70.92
2023-03-10T15:06:54.632Z,70.74
2023-03-10T15:09:25.051Z,71.72
2023-03-10T15:13:51.793Z,70.35
2023-03-10T15:16:20.034Z,70.67
2023-03-10T15:18:48.856Z,71.93
2023-03-10T15:21:17.562Z,73.18
2023-03-10T15:23:46.212Z,74.67
2023-03-10T15:26:14.618Z,70.92
2023-03-10T15:28:42.939Z,73.35
2023-03-10T15:31:11.052Z,74.20
2023-03-10T15:33:39.423Z,73.71
2023-03-10T15:36:08.752Z,74.51
2023-03-10T15:38:37.028Z,73.50
2023-03-10T15:41:05.520Z,74.75
2023-03-10T15:43:33.881Z,75.82
2023-03-10T15:46:05.919Z,77.23
2023-03-10T15:48:34.946Z,79.56
2023-03-10T15:51:09.644Z,80.06
2023-03-10T15:53:38.163Z,80.23
2023-03-10T15:56:07.203Z,80.70
2023-03-10T15:58:35.620Z,80.32
2023-03-10T16:01:08.262Z,81.25
2023-03-10T16:03:36.978Z,82.78
2023-03-10T16:06:05.685Z,82.55
2023-03-10T16:08:37.000Z,82.67
2023-03-10T16:12:59.891Z,83.93
2023-03-10T16:15:30.118Z,85.55
2023-03-10T16:18:00.318Z,85.87
2023-03-10T16:20:30.849Z,85.66
2023-03-10T16:23:01.073Z,86.45
2023-03-10T16:25:31.506Z,85.47
2023-03-10T16:28:01.762Z,86.41
2023-03-10T16:30:32.114Z,86.61
2023-03-10T16:33:02.698Z,86.46
2023-03-10T16:35:33.008Z,85.89
2023-03-10T16:38:04.010Z,85.83
2023-03-10T16:40:34.588Z,85.54
2023-03-10T16:43:04.907Z,86.17
2023-03-10T16:45:35.759Z,87.18
2023-03-10T16:48:06.345Z,87.07
2023-03-10T16:50:37.086Z,86.65
2023-03-10T16:53:12.411Z,84.76
2023-03-10T16:55:42.938Z,85.02
2023-03-10T16:58:13.143Z,85.31
2023-03-10T17:00:44.512Z,86.65
2023-03-10T17:03:15.437Z,85.92
2023-03-10T17:05:45.616Z,84.73
2023-03-10T17:08:15.979Z,83.75
2023-03-10T17:10:46.227Z,85.18
2023-03-10T17:13:16.591Z,84.97
2023-03-10T17:15:47.082Z,84.74
2023-03-10T17:18:19.776Z,85.03
2023-03-10T17:20:50.269Z,84.45
2023-03-10T17:23:22.525Z,85.14
2023-03-10T17:25:53.848Z,84.78
2023-03-10T17:28:24.841Z,84.91
2023-03-10T17:30:55.268Z,84.75
2023-03-10T17:33:25.464Z,85.41
2023-03-10T17:35:56.127Z,85.51
2023-03-10T17:38:29.168Z,85.33
2023-03-10T17:41:00.256Z,85.47
2023-03-10T17:43:34.570Z,85.37
2023-03-10T17:46:07.542Z,85.28
2023-03-10T17:48:37.954Z,86.32
2023-03-10T17:51:09.427Z,86.06
2023-03-10T17:53:39.786Z,87.18
2023-03-10T17:56:10.881Z,88.73
2023-03-10T17:58:41.611Z,90.80
2023-03-10T18:01:12.703Z,91.61
2023-03-10T18:03:43.154Z,92.74
2023-03-10T18:06:15.019Z,93.68
2023-03-10T18:08:49.562Z,94.60
2023-03-10T18:11:24.036Z,94.29
2023-03-10T18:13:54.737Z,95.96
2023-03-10T18:16:26.328Z,96.18
2023-03-10T18:18:57.329Z,97.38
2023-03-10T18:21:31.354Z,99.07
2023-03-10T18:24:01.608Z,98.94
2023-03-10T18:26:32.579Z,99.49
2023-03-10T18:29:02.896Z,99.90
2023-03-10T18:31:34.801Z,100.00
2023-03-10T18:34:05.832Z,100.00
2023-03-10T18:36:36.265Z,100.00
2023-03-10T18:39:11.891Z,100.00
2023-03-10T18:41:43.182Z,100.00
2023-03-10T18:44:13.499Z,100.00
2023-03-10T18:46:46.911Z,100.00
2023-03-10T18:49:17.378Z,100.00
2023-03-10T18:51:47.652Z,100.00
2023-03-10T18:54:17.881Z,100.00
2023-03-10T18:56:49.857Z,100.00
2023-03-10T18:59:21.091Z,100.00
2023-03-10T19:01:58.205Z,100.00
2023-03-10T19:04:32.733Z,100.00
2023-03-10T19:07:12.993Z,100.00
2023-03-10T19:09:49.380Z,100.00
2023-03-10T19:12:26.922Z,100.00
2023-03-10T19:15:06.348Z,100.00
2023-03-10T19:17:38.451Z,100.00
2023-03-10T19:20:11.579Z,100.00
2023-03-10T19:22:44.651Z,100.00
2023-03-10T19:25:15.011Z,100.00
2023-03-10T19:27:45.172Z,100.00
2023-03-10T19:30:21.461Z,100.00
2023-03-10T19:32:54.241Z,100.00
2023-03-10T19:35:28.642Z,100.00
2023-03-10T19:38:06.021Z,100.00
2023-03-10T19:40:50.949Z,100.00
2023-03-10T19:43:27.018Z,100.00
2023-03-10T19:46:04.922Z,100.00
2023-03-10T19:48:38.733Z,100.00
2023-03-10T19:51:20.869Z,100.00
2023-03-10T19:53:56.922Z,100.00
2023-03-10T19:56:31.536Z,100.00
2023-03-10T19:59:05.282Z,100.00
2023-03-10T20:01:43.761Z,100.00
2023-03-10T20:04:18.061Z,100.00
2023-03-10T20:06:53.301Z,100.00
2023-03-10T20:09:27.964Z,100.00
2023-03-10T20:12:02.555Z,100.00
2023-03-10T20:14:37.360Z,100.00
2023-03-10T20:17:09.482Z,100.00
2023-03-10T20:19:44.669Z,100.00
2023-03-10T20:22:22.680Z,100.00
2023-03-10T20:24:57.390Z,100.00
2023-03-10T20:27:33.424Z,100.00
2023-03-10T20:30:09.879Z,100.00
2023-03-10T20:32:47.037Z,100.00
2023-03-10T20:35:23.613Z,100.00
2023-03-10T20:38:01.900Z,100.00
2023-03-10T20:40:38.112Z,100.00
2023-03-10T20:43:15.220Z,100.00
2023-03-10T20:45:50.042Z,100.00
2023-03-10T20:48:25.053Z,100.00
2023-03-10T20:51:03.388Z,100.00
2023-03-10T20:53:39.909Z,100.00
2023-03-10T20:56:16.097Z,100.00
2023-03-10T20:58:54.359Z,100.00
2023-03-10T21:01:31.234Z,100.00
2023-03-10T21:04:06.208Z,100.00
2023-03-10T21:06:40.165Z,100.00
2023-03-10T21:09:18.095Z,100.00
2023-03-10T21:11:53.988Z,100.00
2023-03-10T21:14:30.910Z,100.00
2023-03-10T21:17:05.638Z,100.00
2023-03-10T21:19:37.738Z,100.00
2023-03-10T21:22:08.934Z,100.00
2023-03-10T21:24:39.772Z,100.00
2023-03-10T21:27:10.063Z,100.00
2023-03-10T21:29:43.326Z,100.00
2023-03-10T21:32:13.827Z,100.00
2023-03-10T21:34:44.538Z,100.00
2023-03-10T21:37:15.903Z,100.00
2023-03-10T21:39:46.644Z,100.00
2023-03-10T21:42:17.264Z,100.00
2023-03-10T21:44:48.300Z,100.00
2023-03-10T21:47:18.710Z,100.00
2023-03-10T21:49:49.157Z,100.00
2023-03-10T21:52:19.795Z,100.00
2023-03-10T21:54:50.145Z,100.00
2023-03-10T21:57:20.407Z,100.00
2023-03-10T21:59:51.282Z,100.00
2023-03-10T22:02:25.644Z,100.00
2023-03-10T22:04:56.019Z,100.00
2023-03-10T22:07:26.796Z,100.00
2023-03-10T22:09:57.114Z,100.00
2023-03-10T22:12:29.065Z,100.00
2023-03-10T22:14:59.557Z,100.00
2023-03-10T22:17:30.648Z,100.00
2023-03-10T22:20:02.085Z,100.00
2023-03-10T22:22:32.443Z,100.00
2023-03-10T22:25:03.448Z,100.00
2023-03-10T22:27:33.783Z,100.00
2023-03-10T22:30:06.260Z,100.00
2023-03-10T22:32:36.962Z,100.00
2023-03-10T22:35:07.702Z,100.00
2023-03-10T22:37:42.504Z,100.00
2023-03-10T22:40:14.850Z,100.00
2023-03-10T22:42:45.838Z,100.00
2023-03-10T22:45:19.205Z,100.00
2023-03-10T22:47:49.760Z,100.00
2023-03-10T22:50:23.417Z,100.00
2023-03-10T22:52:53.934Z,100.00
2023-03-10T22:55:25.885Z,100.00
2023-03-10T22:57:57.030Z,100.00
2023-03-10T23:00:27.449Z,100.00
2023-03-10T23:02:58.119Z,100.00
2023-03-10T23:05:28.619Z,100.00
2023-03-10T23:07:59.413Z,100.00
2023-03-10T23:10:31.021Z,100.00
2023-03-10T23:13:02.041Z,100.00
2023-03-10T23:15:33.674Z,100.00
2023-03-10T23:18:04.105Z,100.00
2023-03-10T23:20:35.922Z,100.00
2023-03-10T23:23:07.156Z,100.00
2023-03-10T23:25:40.472Z,100.00
2023-03-10T23:28:11.302Z,100.00
2023-03-10T23:30:42.413Z,100.00
2023-03-10T23:33:14.742Z,100.00
2023-03-10T23:35:46.578Z,100.00
2023-03-10T23:38:16.950Z,100.00
2023-03-10T23:40:50.928Z,100.00
2023-03-10T23:43:22.730Z,100.00
2023-03-10T23:45:53.131Z,100.00
2023-03-10T23:48:24.930Z,100.00
2023-03-10T23:50:55.327Z,100.00
2023-03-10T23:53:25.468Z,100.00
2023-03-10T23:55:59.118Z,100.00
2023-03-10T23:58:29.931Z,100.00
